Hachioji, Japan
Current Conditions -  °F | °C
As of 5:26 PM on Tuesday 21 Oct 2014 (Local Time) from RJTY Reporting Station
Haze Haze  
Wind Chill: 63°   Ceiling: Unl
Heat Index: 63°   Visibility: 4mi
Dew Point: 61°   Wind: 6mph
Humidity: 94%   Direction: 20°NNE
Pressure: 29.97"   Gusts: NA
Location:  35.66°N, 139.33°E
Report Text: RJTY 210826Z AUTO 02005KT 4SM BR FEW010 SCT016 17/16 A2997 RMK AO2
Loading
Personal Weather Stations






























Interactive Weather Map
Tropical Storm Tracking
New forecast layout! Learn more

10-Day Weather Forecast

Advertisements
Track Severe Weather on mobile